sensor_id;sensor_type;location;lat;lon;timestamp;pressure;altitude;pressure_sealevel;temperature;humidity
12219;BME280;6172;42.646;23.344;2023-11-18T00:02:11;93898.19;;;4.44;100.00
12219;BME280;6172;42.646;23.344;2023-11-18T00:04:39;93900.16;;;4.33;100.00
12219;BME280;6172;42.646;23.344;2023-11-18T00:07:06;93914.00;;;4.38;100.00
12219;BME280;6172;42.646;23.344;2023-11-18T00:09:33;93912.09;;;4.39;100.00
12219;BME280;6172;42.646;23.344;2023-11-18T00:12:01;93893.94;;;4.43;100.00
12219;BME280;6172;42.646;23.344;2023-11-18T00:14:29;93902.91;;;4.26;100.00
12219;BME280;6172;42.646;23.344;2023-11-18T00:16:56;93922.13;;;4.35;100.00
12219;BME280;6172;42.646;23.344;2023-11-18T00:19:24;93930.22;;;4.31;100.00
12219;BME280;6172;42.646;23.344;2023-11-18T00:21:51;93940.25;;;4.31;100.00
12219;BME280;6172;42.646;23.344;2023-11-18T00:24:19;93932.59;;;4.19;100.00
12219;BME280;6172;42.646;23.344;2023-11-18T00:26:46;93932.97;;;4.14;100.00
12219;BME280;6172;42.646;23.344;2023-11-18T00:29:15;93903.69;;;4.23;100.00
12219;BME280;6172;42.646;23.344;2023-11-18T00:31:42;93891.38;;;4.22;100.00
12219;BME280;6172;42.646;23.344;2023-11-18T00:34:09;93898.25;;;4.30;100.00
12219;BME280;6172;42.646;23.344;2023-11-18T00:36:37;93912.91;;;4.25;100.00
12219;BME280;6172;42.646;23.344;2023-11-18T00:39:04;93902.91;;;4.26;100.00
12219;BME280;6172;42.646;23.344;2023-11-18T00:41:31;93898.72;;;4.18;100.00
12219;BME280;6172;42.646;23.344;2023-11-18T00:43:58;93909.09;;;4.12;100.00
12219;BME280;6172;42.646;23.344;2023-11-18T00:46:26;93899.47;;;4.18;100.00
12219;BME280;6172;42.646;23.344;2023-11-18T00:48:53;93909.09;;;4.16;100.00
12219;BME280;6172;42.646;23.344;2023-11-18T00:51:23;93909.09;;;4.19;100.00
12219;BME280;6172;42.646;23.344;2023-11-18T00:53:50;93909.88;;;4.02;100.00
12219;BME280;6172;42.646;23.344;2023-11-18T00:56:20;93916.84;;;3.93;100.00
12219;BME280;6172;42.646;23.344;2023-11-18T00:58:47;93914.88;;;4.07;100.00
12219;BME280;6172;42.646;23.344;2023-11-18T01:01:14;93909.88;;;4.02;100.00
12219;BME280;6172;42.646;23.344;2023-11-18T01:03:44;93912.66;;;3.85;100.00
12219;BME280;6172;42.646;23.344;2023-11-18T01:06:11;93921.53;;;3.71;100.00
12219;BME280;6172;42.646;23.344;2023-11-18T01:08:38;93923.81;;;3.80;100.00
12219;BME280;6172;42.646;23.344;2023-11-18T01:11:05;93925.00;;;3.72;100.00
12219;BME280;6172;42.646;23.344;2023-11-18T01:13:32;93925.00;;;3.79;100.00
12219;BME280;6172;42.646;23.344;2023-11-18T01:15:59;93937.31;;;3.73;100.00
12219;BME280;6172;42.646;23.344;2023-11-18T01:18:27;93942.69;;;3.76;100.00
12219;BME280;6172;42.646;23.344;2023-11-18T01:20:55;93947.31;;;3.76;100.00
12219;BME280;6172;42.646;23.344;2023-11-18T01:23:24;93943.09;;;3.75;100.00
12219;BME280;6172;42.646;23.344;2023-11-18T01:25:51;93930.00;;;3.73;100.00
12219;BME280;6172;42.646;23.344;2023-11-18T01:28:18;93934.63;;;3.66;100.00
12219;BME280;6172;42.646;23.344;2023-11-18T01:30:45;93925.78;;;3.55;100.00
12219;BME280;6172;42.646;23.344;2023-11-18T01:33:12;93932.34;;;3.64;100.00
12219;BME280;6172;42.646;23.344;2023-11-18T01:35:40;93933.88;;;3.55;100.00
12219;BME280;6172;42.646;23.344;2023-11-18T01:38:10;93945.78;;;3.61;100.00
12219;BME280;6172;42.646;23.344;2023-11-18T01:40:38;93933.09;;;3.61;100.00
12219;BME280;6172;42.646;23.344;2023-11-18T01:43:05;93935.06;;;3.50;100.00
12219;BME280;6172;42.646;23.344;2023-11-18T01:45:36;93932.38;;;3.43;100.00
12219;BME280;6172;42.646;23.344;2023-11-18T01:48:04;93937.34;;;3.52;100.00
12219;BME280;6172;42.646;23.344;2023-11-18T01:50:31;93931.97;;;3.52;100.00
12219;BME280;6172;42.646;23.344;2023-11-18T01:52:58;93940.03;;;3.62;100.00
12219;BME280;6172;42.646;23.344;2023-11-18T01:55:27;93946.19;;;3.56;100.00
12219;BME280;6172;42.646;23.344;2023-11-18T01:57:54;93937.72;;;3.54;100.00
12219;BME280;6172;42.646;23.344;2023-11-18T02:00:24;93928.47;;;3.55;100.00
12219;BME280;6172;42.646;23.344;2023-11-18T02:02:51;93934.66;;;3.55;100.00
12219;BME280;6172;42.646;23.344;2023-11-18T02:05:18;93941.22;;;3.47;100.00
12219;BME280;6172;42.646;23.344;2023-11-18T02:07:45;93930.03;;;3.45;100.00
12219;BME280;6172;42.646;23.344;2023-11-18T02:10:12;93929.28;;;3.34;100.00
12219;BME280;6172;42.646;23.344;2023-11-18T02:12:44;93939.66;;;3.25;100.00
12219;BME280;6172;42.646;23.344;2023-11-18T02:15:14;93925.81;;;3.26;100.00
12219;BME280;6172;42.646;23.344;2023-11-18T02:17:43;93924.28;;;3.22;100.00
12219;BME280;6172;42.646;23.344;2023-11-18T02:20:12;93930.06;;;3.20;100.00
12219;BME280;6172;42.646;23.344;2023-11-18T02:22:42;93940.44;;;3.18;100.00
12219;BME280;6172;42.646;23.344;2023-11-18T02:25:09;93936.97;;;3.14;100.00
12219;BME280;6172;42.646;23.344;2023-11-18T02:27:38;93941.97;;;2.98;100.00
12219;BME280;6172;42.646;23.344;2023-11-18T02:30:07;93931.97;;;3.13;100.00
12219;BME280;6172;42.646;23.344;2023-11-18T02:32:44;93927.75;;;3.08;100.00
12219;BME280;6172;42.646;23.344;2023-11-18T02:35:19;93940.03;;;2.92;100.00
12219;BME280;6172;42.646;23.344;2023-11-18T02:37:48;93923.88;;;2.92;100.00
12219;BME280;6172;42.646;23.344;2023-11-18T02:40:21;93933.13;;;2.91;100.00
12219;BME280;6172;42.646;23.344;2023-11-18T02:42:53;93936.59;;;2.98;100.00
12219;BME280;6172;42.646;23.344;2023-11-18T02:45:21;93923.13;;;2.98;100.00
12219;BME280;6172;42.646;23.344;2023-11-18T02:47:48;93931.97;;;3.02;100.00
12219;BME280;6172;42.646;23.344;2023-11-18T02:50:15;93921.59;;;3.01;100.00
12219;BME280;6172;42.646;23.344;2023-11-18T02:52:44;93921.22;;;3.02;100.00
12219;BME280;6172;42.646;23.344;2023-11-18T02:55:11;93923.09;;;2.84;100.00
12219;BME280;6172;42.646;23.344;2023-11-18T02:57:38;93935.41;;;2.96;100.00
12219;BME280;6172;42.646;23.344;2023-11-18T03:00:08;93943.09;;;2.83;100.00
12219;BME280;6172;42.646;23.344;2023-11-18T03:02:42;93957.72;;;2.89;100.00
12219;BME280;6172;42.646;23.344;2023-11-18T03:05:09;93960.00;;;2.80;100.00
12219;BME280;6172;42.646;23.344;2023-11-18T03:07:37;93948.84;;;2.78;100.00
12219;BME280;6172;42.646;23.344;2023-11-18T03:10:05;93960.00;;;2.80;100.00
12219;BME280;6172;42.646;23.344;2023-11-18T03:12:36;93959.97;;;2.70;100.00
12219;BME280;6172;42.646;23.344;2023-11-18T03:15:04;93964.63;;;2.76;100.00
12219;BME280;6172;42.646;23.344;2023-11-18T03:17:33;93976.91;;;2.77;100.00
12219;BME280;6172;42.646;23.344;2023-11-18T03:20:00;93986.13;;;2.80;100.00
12219;BME280;6172;42.646;23.344;2023-11-18T03:22:27;93984.94;;;2.67;100.00
12219;BME280;6172;42.646;23.344;2023-11-18T03:24:54;93986.47;;;2.64;100.00
12219;BME280;6172;42.646;23.344;2023-11-18T03:27:21;93987.25;;;2.68;100.00
12219;BME280;6172;42.646;23.344;2023-11-18T03:29:48;93986.09;;;2.55;100.00
12219;BME280;6172;42.646;23.344;2023-11-18T03:32:15;93988.34;;;2.46;100.00
12219;BME280;6172;42.646;23.344;2023-11-18T03:34:44;93982.19;;;2.39;100.00
12219;BME280;6172;42.646;23.344;2023-11-18T03:37:11;93989.13;;;2.43;100.00
12219;BME280;6172;42.646;23.344;2023-11-18T03:39:38;93996.03;;;2.44;100.00
12219;BME280;6172;42.646;23.344;2023-11-18T03:42:05;93989.44;;;2.31;100.00
12219;BME280;6172;42.646;23.344;2023-11-18T03:44:32;94001.72;;;2.29;100.00
12219;BME280;6172;42.646;23.344;2023-11-18T03:46:59;94009.00;;;2.28;100.00
12219;BME280;6172;42.646;23.344;2023-11-18T03:49:28;93992.91;;;2.35;100.00
12219;BME280;6172;42.646;23.344;2023-11-18T03:51:57;93990.22;;;2.32;100.00
12219;BME280;6172;42.646;23.344;2023-11-18T03:54:24;93985.16;;;2.16;100.00
12219;BME280;6172;42.646;23.344;2023-11-18T03:56:52;94010.47;;;2.12;100.00
12219;BME280;6172;42.646;23.344;2023-11-18T03:59:19;94001.59;;;2.04;100.00
12219;BME280;6172;42.646;23.344;2023-11-18T04:01:46;94008.91;;;2.07;100.00
12219;BME280;6172;42.646;23.344;2023-11-18T04:04:14;94011.53;;;1.97;100.00
12219;BME280;6172;42.646;23.344;2023-11-18T04:06:42;93995.81;;;2.02;100.00
12219;BME280;6172;42.646;23.344;2023-11-18T04:09:10;94012.66;;;1.92;100.00
12219;BME280;6172;42.646;23.344;2023-11-18T04:11:38;94013.50;;;2.07;100.00
12219;BME280;6172;42.646;23.344;2023-11-18T04:14:05;94014.19;;;1.90;100.00
12219;BME280;6172;42.646;23.344;2023-11-18T04:16:33;94004.22;;;1.94;100.00
12219;BME280;6172;42.646;23.344;2023-11-18T04:19:00;93998.81;;;1.87;100.00
12219;BME280;6172;42.646;23.344;2023-11-18T04:21:26;94015.63;;;1.77;100.00
12219;BME280;6172;42.646;23.344;2023-11-18T04:23:53;94023.31;;;1.78;100.00
12219;BME280;6172;42.646;23.344;2023-11-18T04:26:22;94021.78;;;1.77;100.00
12219;BME280;6172;42.646;23.344;2023-11-18T04:28:50;94002.63;;;1.82;100.00
12219;BME280;6172;42.646;23.344;2023-11-18T04:31:17;94009.19;;;1.85;100.00
12219;BME280;6172;42.646;23.344;2023-11-18T04:33:43;94015.72;;;1.91;100.00
12219;BME280;6172;42.646;23.344;2023-11-18T04:36:10;94017.28;;;1.92;100.00
12219;BME280;6172;42.646;23.344;2023-11-18T04:38:39;94022.53;;;1.74;100.00
12219;BME280;6172;42.646;23.344;2023-11-18T04:41:05;94016.81;;;1.83;100.00
12219;BME280;6172;42.646;23.344;2023-11-18T04:43:34;94019.44;;;1.69;100.00
12219;BME280;6172;42.646;23.344;2023-11-18T04:46:01;94029.47;;;1.79;100.00
12219;BME280;6172;42.646;23.344;2023-11-18T04:48:28;94023.31;;;1.75;100.00
12219;BME280;6172;42.646;23.344;2023-11-18T04:50:55;94033.22;;;1.67;100.00
12219;BME280;6172;42.646;23.344;2023-11-18T04:53:22;94035.50;;;1.65;100.00
12219;BME280;6172;42.646;23.344;2023-11-18T04:55:51;94033.19;;;1.64;100.00
12219;BME280;6172;42.646;23.344;2023-11-18T04:58:18;94040.44;;;1.56;100.00
12219;BME280;6172;42.646;23.344;2023-11-18T05:00:46;94025.13;;;1.60;100.00
12219;BME280;6172;42.646;23.344;2023-11-18T05:03:14;94033.56;;;1.62;100.00
12219;BME280;6172;42.646;23.344;2023-11-18T05:05:40;94021.69;;;1.63;100.00
12219;BME280;6172;42.646;23.344;2023-11-18T05:08:17;94030.53;;;1.67;100.00
12219;BME280;6172;42.646;23.344;2023-11-18T05:10:46;94025.63;;;1.76;100.00
12219;BME280;6172;42.646;23.344;2023-11-18T05:13:13;94017.13;;;1.71;100.00
12219;BME280;6172;42.646;23.344;2023-11-18T05:15:42;94025.22;;;1.74;100.00
12219;BME280;6172;42.646;23.344;2023-11-18T05:18:12;94018.69;;;1.75;100.00
12219;BME280;6172;42.646;23.344;2023-11-18T05:20:40;94026.63;;;1.58;100.00
12219;BME280;6172;42.646;23.344;2023-11-18T05:23:07;94015.06;;;1.50;100.00
12219;BME280;6172;42.646;23.344;2023-11-18T05:25:35;94015.50;;;1.56;100.00
12219;BME280;6172;42.646;23.344;2023-11-18T05:28:03;94019.28;;;1.51;100.00
12219;BME280;6172;42.646;23.344;2023-11-18T05:30:30;94006.97;;;1.47;100.00
12219;BME280;6172;42.646;23.344;2023-11-18T05:32:57;94000.88;;;1.50;100.00
12219;BME280;6172;42.646;23.344;2023-11-18T05:35:26;94005.47;;;1.49;100.00
12219;BME280;6172;42.646;23.344;2023-11-18T05:37:54;94005.44;;;1.46;100.00
12219;BME280;6172;42.646;23.344;2023-11-18T05:40:21;94001.19;;;1.41;100.00
12219;BME280;6172;42.646;23.344;2023-11-18T05:42:48;94001.28;;;1.52;100.00
12219;BME280;6172;42.646;23.344;2023-11-18T05:45:17;94007.44;;;1.56;100.00
12219;BME280;6172;42.646;23.344;2023-11-18T05:47:54;94021.97;;;1.51;100.00
12219;BME280;6172;42.646;23.344;2023-11-18T05:50:22;94013.13;;;1.47;100.00
12219;BME280;6172;42.646;23.344;2023-11-18T05:52:52;94011.59;;;1.46;100.00
12219;BME280;6172;42.646;23.344;2023-11-18T05:55:19;94003.53;;;1.46;100.00
12219;BME280;6172;42.646;23.344;2023-11-18T05:57:46;94009.34;;;1.55;100.00
12219;BME280;6172;42.646;23.344;2023-11-18T06:00:13;94002.47;;;1.61;100.00
12219;BME280;6172;42.646;23.344;2023-11-18T06:02:42;93996.66;;;1.52;100.00
12219;BME280;6172;42.646;23.344;2023-11-18T06:05:09;93989.84;;;1.62;100.00
12219;BME280;6172;42.646;23.344;2023-11-18T06:07:38;93997.16;;;1.68;100.00
12219;BME280;6172;42.646;23.344;2023-11-18T06:10:08;93998.28;;;1.60;100.00
12219;BME280;6172;42.646;23.344;2023-11-18T06:12:35;94000.84;;;1.46;100.00
12219;BME280;6172;42.646;23.344;2023-11-18T06:15:03;94002.19;;;1.73;100.00
12219;BME280;6172;42.646;23.344;2023-11-18T06:17:30;93997.84;;;1.58;100.00
12219;BME280;6172;42.646;23.344;2023-11-18T06:19:57;94012.00;;;1.52;100.00
12219;BME280;6172;42.646;23.344;2023-11-18T06:22:24;94015.50;;;1.56;100.00
12219;BME280;6172;42.646;23.344;2023-11-18T06:24:51;94018.81;;;1.39;100.00
12219;BME280;6172;42.646;23.344;2023-11-18T06:27:20;94023.50;;;1.52;100.00
12219;BME280;6172;42.646;23.344;2023-11-18T06:29:50;94015.47;;;1.52;100.00
12219;BME280;6172;42.646;23.344;2023-11-18T06:32:20;94016.28;;;1.56;100.00
12219;BME280;6172;42.646;23.344;2023-11-18T06:34:46;94008.13;;;1.49;100.00
12219;BME280;6172;42.646;23.344;2023-11-18T06:37:14;94010.88;;;1.53;100.00
12219;BME280;6172;42.646;23.344;2023-11-18T06:39:42;94027.00;;;1.56;100.00
12219;BME280;6172;42.646;23.344;2023-11-18T06:42:13;94021.66;;;1.56;100.00
12219;BME280;6172;42.646;23.344;2023-11-18T06:44:41;94011.66;;;1.53;100.00
12219;BME280;6172;42.646;23.344;2023-11-18T06:47:08;94010.91;;;1.60;100.00
12219;BME280;6172;42.646;23.344;2023-11-18T06:49:38;94019.47;;;1.76;100.00
12219;BME280;6172;42.646;23.344;2023-11-18T06:52:06;94009.88;;;1.78;100.00
12219;BME280;6172;42.646;23.344;2023-11-18T06:54:41;94009.88;;;1.75;100.00
12219;BME280;6172;42.646;23.344;2023-11-18T06:57:08;93999.13;;;1.78;100.00
12219;BME280;6172;42.646;23.344;2023-11-18T06:59:35;94005.69;;;1.81;100.00
12219;BME280;6172;42.646;23.344;2023-11-18T07:02:03;94034.44;;;1.77;100.00
12219;BME280;6172;42.646;23.344;2023-11-18T07:04:31;94031.03;;;1.83;100.00
12219;BME280;6172;42.646;23.344;2023-11-18T07:06:58;94029.47;;;1.82;100.00
12219;BME280;6172;42.646;23.344;2023-11-18T07:09:25;94038.69;;;1.78;100.00
12219;BME280;6172;42.646;23.344;2023-11-18T07:11:52;94037.25;;;1.94;100.00
12219;BME280;6172;42.646;23.344;2023-11-18T07:14:21;94039.56;;;1.96;100.00
12219;BME280;6172;42.646;23.344;2023-11-18T07:16:48;94042.34;;;2.13;100.00
12219;BME280;6172;42.646;23.344;2023-11-18T07:19:16;94033.50;;;2.09;100.00
12219;BME280;6172;42.646;23.344;2023-11-18T07:21:45;94031.84;;;1.91;100.00
12219;BME280;6172;42.646;23.344;2023-11-18T07:24:12;94034.16;;;1.89;100.00
12219;BME280;6172;42.646;23.344;2023-11-18T07:26:39;94044.59;;;2.01;100.00
12219;BME280;6172;42.646;23.344;2023-11-18T07:29:06;94044.59;;;2.04;100.00
12219;BME280;6172;42.646;23.344;2023-11-18T07:31:34;94053.44;;;2.05;100.00
12219;BME280;6172;42.646;23.344;2023-11-18T07:34:03;94041.19;;;2.11;100.00
12219;BME280;6172;42.646;23.344;2023-11-18T07:36:32;94035.25;;;1.84;100.00
12219;BME280;6172;42.646;23.344;2023-11-18T07:38:59;94045.66;;;1.89;100.00
12219;BME280;6172;42.646;23.344;2023-11-18T07:41:30;94040.31;;;1.93;100.00
12219;BME280;6172;42.646;23.344;2023-11-18T07:43:57;94040.31;;;1.93;100.00
12219;BME280;6172;42.646;23.344;2023-11-18T07:46:40;94047.66;;;1.99;100.00
12219;BME280;6172;42.646;23.344;2023-11-18T07:49:13;94046.03;;;1.91;100.00
12219;BME280;6172;42.646;23.344;2023-11-18T07:51:43;94039.88;;;1.87;100.00
12219;BME280;6172;42.646;23.344;2023-11-18T07:54:10;94045.69;;;1.93;100.00
12219;BME280;6172;42.646;23.344;2023-11-18T07:56:37;94046.50;;;2.00;100.00
12219;BME280;6172;42.646;23.344;2023-11-18T07:59:04;94042.56;;;1.87;100.00
12219;BME280;6172;42.646;23.344;2023-11-18T08:01:41;94052.56;;;1.90;100.00
12219;BME280;6172;42.646;23.344;2023-11-18T08:04:10;94053.28;;;1.80;100.00
12219;BME280;6172;42.646;23.344;2023-11-18T08:06:36;94057.53;;;1.85;100.00
12219;BME280;6172;42.646;23.344;2023-11-18T08:09:15;94064.31;;;1.68;100.00
12219;BME280;6172;42.646;23.344;2023-11-18T08:11:48;94079.69;;;1.71;100.00
12219;BME280;6172;42.646;23.344;2023-11-18T08:14:20;94062.81;;;1.74;100.00
12219;BME280;6172;42.646;23.344;2023-11-18T08:16:47;94072.00;;;1.70;100.00
12219;BME280;6172;42.646;23.344;2023-11-18T08:19:16;94076.19;;;1.67;100.00
12219;BME280;6172;42.646;23.344;2023-11-18T08:21:44;94080.09;;;1.73;100.00
12219;BME280;6172;42.646;23.344;2023-11-18T08:24:20;94060.81;;;1.64;100.00
12219;BME280;6172;42.646;23.344;2023-11-18T08:27:06;94063.22;;;1.76;100.00
12219;BME280;6172;42.646;23.344;2023-11-18T08:29:33;94051.69;;;1.76;100.00
12219;BME280;6172;42.646;23.344;2023-11-18T08:32:00;94047.16;;;1.83;100.00
12219;BME280;6172;42.646;23.344;2023-11-18T08:34:27;94044.81;;;1.78;100.00
12219;BME280;6172;42.646;23.344;2023-11-18T08:36:54;94051.78;;;1.86;100.00
12219;BME280;6172;42.646;23.344;2023-11-18T08:39:24;94050.22;;;1.85;100.00
12219;BME280;6172;42.646;23.344;2023-11-18T08:41:54;94044.09;;;1.88;100.00
12219;BME280;6172;42.646;23.344;2023-11-18T08:44:21;94052.25;;;2.02;100.00
12219;BME280;6172;42.646;23.344;2023-11-18T08:46:49;94039.59;;;2.03;100.00
12219;BME280;6172;42.646;23.344;2023-11-18T08:49:17;94045.38;;;2.08;100.00
12219;BME280;6172;42.646;23.344;2023-11-18T08:51:47;94058.84;;;2.15;100.00
12219;BME280;6172;42.646;23.344;2023-11-18T08:54:15;94058.81;;;2.05;100.00
12219;BME280;6172;42.646;23.344;2023-11-18T08:57:05;94076.50;;;2.09;100.00
12219;BME280;6172;42.646;23.344;2023-11-18T08:59:49;94066.75;;;1.87;100.00
12219;BME280;6172;42.646;23.344;2023-11-18T09:02:17;94067.91;;;1.90;100.00
12219;BME280;6172;42.646;23.344;2023-11-18T09:04:48;94074.88;;;1.94;100.00
12219;BME280;6172;42.646;23.344;2023-11-18T09:07:16;94068.75;;;1.97;100.00
12219;BME280;6172;42.646;23.344;2023-11-18T09:09:44;94059.09;;;1.89;100.00
12219;BME280;6172;42.646;23.344;2023-11-18T09:12:16;94049.38;;;1.74;100.00
12219;BME280;6172;42.646;23.344;2023-11-18T09:14:44;94073.97;;;1.76;100.00
12219;BME280;6172;42.646;23.344;2023-11-18T09:17:13;94057.88;;;1.80;100.00
12219;BME280;6172;42.646;23.344;2023-11-18T09:19:40;94063.28;;;1.83;100.00
12219;BME280;6172;42.646;23.344;2023-11-18T09:22:07;94073.25;;;1.83;100.00
12219;BME280;6172;42.646;23.344;2023-11-18T09:24:38;94063.69;;;1.92;100.00
12219;BME280;6172;42.646;23.344;2023-11-18T09:27:05;94063.28;;;1.83;100.00
12219;BME280;6172;42.646;23.344;2023-11-18T09:29:36;94059.09;;;1.89;100.00
12219;BME280;6172;42.646;23.344;2023-11-18T09:32:06;94089.91;;;2.06;100.00
12219;BME280;6172;42.646;23.344;2023-11-18T09:34:33;94068.09;;;2.14;100.00
12219;BME280;6172;42.646;23.344;2023-11-18T09:37:00;94067.38;;;2.24;100.00
12219;BME280;6172;42.646;23.344;2023-11-18T09:39:28;94062.75;;;2.21;100.00
12219;BME280;6172;42.646;23.344;2023-11-18T09:42:05;94066.22;;;2.22;100.00
12219;BME280;6172;42.646;23.344;2023-11-18T09:44:36;94050.47;;;2.20;100.00
12219;BME280;6172;42.646;23.344;2023-11-18T09:47:07;94053.63;;;2.36;100.00
12219;BME280;6172;42.646;23.344;2023-11-18T09:49:40;94048.63;;;2.38;100.00
12219;BME280;6172;42.646;23.344;2023-11-18T09:52:15;94061.25;;;2.27;100.00
12219;BME280;6172;42.646;23.344;2023-11-18T09:54:50;94061.28;;;2.34;100.00
12219;BME280;6172;42.646;23.344;2023-11-18T09:57:24;94044.78;;;2.36;100.00
12219;BME280;6172;42.646;23.344;2023-11-18T10:00:02;94044.38;;;2.30;100.00
12219;BME280;6172;42.646;23.344;2023-11-18T10:02:45;94053.13;;;2.17;100.00
12219;BME280;6172;42.646;23.344;2023-11-18T10:05:12;94053.59;;;2.33;100.00
12219;BME280;6172;42.646;23.344;2023-11-18T10:07:41;94060.38;;;2.09;100.00
12219;BME280;6172;42.646;23.344;2023-11-18T10:10:08;94057.31;;;2.14;100.00
12219;BME280;6172;42.646;23.344;2023-11-18T10:12:41;94062.00;;;2.24;100.00
12219;BME280;6172;42.646;23.344;2023-11-18T10:15:14;94061.25;;;2.27;100.00
12219;BME280;6172;42.646;23.344;2023-11-18T10:17:44;94067.84;;;2.40;100.00
12219;BME280;6172;42.646;23.344;2023-11-18T10:20:21;94055.88;;;2.27;100.00
12219;BME280;6172;42.646;23.344;2023-11-18T10:23:06;94070.34;;;2.12;100.00
12219;BME280;6172;42.646;23.344;2023-11-18T10:25:35;94063.84;;;2.13;100.00
12219;BME280;6172;42.646;23.344;2023-11-18T10:28:06;94070.81;;;2.21;100.00
12219;BME280;6172;42.646;23.344;2023-11-18T10:30:44;94075.72;;;2.12;100.00
12219;BME280;6172;42.646;23.344;2023-11-18T10:33:14;94053.50;;;2.15;100.00
12219;BME280;6172;42.646;23.344;2023-11-18T10:35:49;94057.72;;;2.16;100.00
12219;BME280;6172;42.646;23.344;2023-11-18T10:38:18;94047.31;;;2.11;100.00
12219;BME280;6172;42.646;23.344;2023-11-18T10:40:45;94046.66;;;2.25;100.00
12219;BME280;6172;42.646;23.344;2023-11-18T10:43:13;94042.09;;;2.36;100.00
12219;BME280;6172;42.646;23.344;2023-11-18T10:45:44;94029.78;;;2.35;100.00
12219;BME280;6172;42.646;23.344;2023-11-18T10:48:12;94029.75;;;2.31;100.00
12219;BME280;6172;42.646;23.344;2023-11-18T10:50:46;94024.44;;;2.42;100.00
12219;BME280;6172;42.646;23.344;2023-11-18T10:53:13;94023.69;;;2.45;100.00
12219;BME280;6172;42.646;23.344;2023-11-18T10:55:42;94016.84;;;2.65;100.00
12219;BME280;6172;42.646;23.344;2023-11-18T10:58:11;94009.19;;;2.70;100.00
12219;BME280;6172;42.646;23.344;2023-11-18T11:00:48;94016.53;;;2.94;100.00
12219;BME280;6172;42.646;23.344;2023-11-18T11:03:17;94020.03;;;3.05;100.00
12219;BME280;6172;42.646;23.344;2023-11-18T11:05:45;93996.22;;;3.28;100.00
12219;BME280;6172;42.646;23.344;2023-11-18T11:08:14;93995.44;;;3.21;100.00
12219;BME280;6172;42.646;23.344;2023-11-18T11:10:42;94000.06;;;3.27;100.00
12219;BME280;6172;42.646;23.344;2023-11-18T11:13:09;93988.50;;;3.45;100.00
12219;BME280;6172;42.646;23.344;2023-11-18T11:15:41;93998.53;;;3.65;100.00
12219;BME280;6172;42.646;23.344;2023-11-18T11:18:12;94000.06;;;3.56;100.00
12219;BME280;6172;42.646;23.344;2023-11-18T11:20:56;94000.09;;;3.42;100.00
12219;BME280;6172;42.646;23.344;2023-11-18T11:23:35;93996.19;;;3.07;100.00
12219;BME280;6172;42.646;23.344;2023-11-18T11:26:18;93990.78;;;2.86;100.00
12219;BME280;6172;42.646;23.344;2023-11-18T11:29:00;93994.63;;;2.89;100.00
12219;BME280;6172;42.646;23.344;2023-11-18T11:31:32;93985.44;;;3.04;100.00
12219;BME280;6172;42.646;23.344;2023-11-18T11:34:04;94003.16;;;3.51;100.00
12219;BME280;6172;42.646;23.344;2023-11-18T11:36:37;94003.91;;;3.76;100.00
12219;BME280;6172;42.646;23.344;2023-11-18T11:39:08;93985.81;;;3.55;100.00
12219;BME280;6172;42.646;23.344;2023-11-18T11:41:44;93989.28;;;3.27;100.00
12219;BME280;6172;42.646;23.344;2023-11-18T11:44:12;93995.44;;;3.17;100.00
12219;BME280;6172;42.646;23.344;2023-11-18T11:46:40;93995.78;;;3.02;100.00
12219;BME280;6172;42.646;23.344;2023-11-18T11:49:11;93991.50;;;2.62;100.00
12219;BME280;6172;42.646;23.344;2023-11-18T11:51:48;94016.09;;;2.78;100.00
12219;BME280;6172;42.646;23.344;2023-11-18T11:54:22;93992.31;;;2.87;100.00
12219;BME280;6172;42.646;23.344;2023-11-18T11:56:56;94017.75;;;3.11;100.00
12219;BME280;6172;42.646;23.344;2023-11-18T11:59:54;94011.25;;;3.40;100.00
12219;BME280;6172;42.646;23.344;2023-11-18T12:02:22;94014.31;;;3.70;100.00
12219;BME280;6172;42.646;23.344;2023-11-18T12:04:54;94011.56;;;4.26;100.00
12219;BME280;6172;42.646;23.344;2023-11-18T12:07:24;94008.50;;;4.17;100.00
12219;BME280;6172;42.646;23.344;2023-11-18T12:09:55;94012.31;;;4.09;100.00
12219;BME280;6172;42.646;23.344;2023-11-18T12:12:23;94014.66;;;3.90;100.00
12219;BME280;6172;42.646;23.344;2023-11-18T12:14:53;94003.91;;;3.86;100.00
12219;BME280;6172;42.646;23.344;2023-11-18T12:17:23;93997.78;;;3.65;100.00
12219;BME280;6172;42.646;23.344;2023-11-18T12:19:55;94028.16;;;3.48;100.00
12219;BME280;6172;42.646;23.344;2023-11-18T12:22:25;94021.63;;;3.38;100.00
12219;BME280;6172;42.646;23.344;2023-11-18T12:28:14;94022.41;;;3.32;100.00
12219;BME280;6172;42.646;23.344;2023-11-18T12:30:45;94034.69;;;3.25;100.00
12219;BME280;6172;42.646;23.344;2023-11-18T12:34:01;94038.13;;;3.08;100.00
12219;BME280;6172;42.646;23.344;2023-11-18T12:37:12;94021.56;;;3.06;100.00
12219;BME280;6172;42.646;23.344;2023-11-18T12:40:09;94039.22;;;2.93;100.00
12219;BME280;6172;42.646;23.344;2023-11-18T12:43:05;94037.69;;;2.89;100.00
12219;BME280;6172;42.646;23.344;2023-11-18T12:45:43;94039.63;;;2.95;100.00
12219;BME280;6172;42.646;23.344;2023-11-18T12:48:13;94043.81;;;2.75;100.00
12219;BME280;6172;42.646;23.344;2023-11-18T12:50:53;94041.50;;;2.74;100.00
12219;BME280;6172;42.646;23.344;2023-11-18T12:53:26;94038.00;;;2.66;100.00
12219;BME280;6172;42.646;23.344;2023-11-18T12:55:57;94025.22;;;2.46;100.00
12219;BME280;6172;42.646;23.344;2023-11-18T12:58:24;94020.28;;;2.55;100.00
12219;BME280;6172;42.646;23.344;2023-11-18T13:00:51;94014.53;;;2.63;100.00
12219;BME280;6172;42.646;23.344;2023-11-18T13:03:19;94026.03;;;2.53;100.00
12219;BME280;6172;42.646;23.344;2023-11-18T13:05:55;94019.91;;;2.56;100.00
12219;BME280;6172;42.646;23.344;2023-11-18T13:08:24;94031.00;;;2.48;100.00
12219;BME280;6172;42.646;23.344;2023-11-18T13:10:52;94042.94;;;2.54;100.00
12219;BME280;6172;42.646;23.344;2023-11-18T13:13:19;94049.03;;;2.40;100.00
12219;BME280;6172;42.646;23.344;2023-11-18T13:15:48;94032.94;;;2.54;100.00
12219;BME280;6172;42.646;23.344;2023-11-18T13:18:16;94039.13;;;2.62;100.00